createdAt,value
2017-11-29T00:00:07.829Z,6.45
2017-11-29T00:02:41.667Z,11.63
2017-11-29T00:05:18.719Z,9.38
2017-11-29T00:07:54.111Z,11.60
2017-11-29T00:10:30.338Z,10.15
2017-11-29T00:13:05.905Z,8.32
2017-11-29T00:15:46.071Z,7.75
2017-11-29T00:18:21.697Z,8.65
2017-11-29T00:21:02.434Z,6.37
2017-11-29T00:23:40.314Z,7.28
2017-11-29T00:26:17.984Z,8.75
2017-11-29T00:28:53.122Z,8.02
2017-11-29T00:31:30.449Z,8.57
2017-11-29T00:34:06.311Z,9.50
2017-11-29T00:36:44.837Z,10.65
2017-11-29T00:39:19.720Z,7.95
2017-11-29T00:41:54.285Z,9.18
2017-11-29T00:44:28.722Z,9.77
2017-11-29T00:47:05.197Z,10.40
2017-11-29T00:49:43.348Z,8.57
2017-11-29T00:52:19.548Z,9.40
2017-11-29T00:54:54.139Z,8.68
2017-11-29T00:57:29.944Z,11.45
2017-11-29T01:00:07.581Z,9.73
2017-11-29T01:02:42.479Z,9.65
2017-11-29T01:05:20.556Z,9.68
2017-11-29T01:07:59.635Z,9.15
2017-11-29T01:10:33.028Z,9.65
2017-11-29T01:13:13.349Z,9.98
2017-11-29T01:15:51.032Z,8.35
2017-11-29T01:18:38.691Z,9.60
2017-11-29T01:21:19.812Z,10.63
2017-11-29T01:23:57.661Z,9.48
2017-11-29T01:26:33.922Z,12.37
2017-11-29T01:29:13.265Z,10.23
2017-11-29T01:31:50.937Z,9.20
2017-11-29T01:34:34.337Z,9.07
2017-11-29T01:37:09.415Z,11.25
2017-11-29T01:39:45.549Z,11.00
2017-11-29T01:42:22.526Z,10.93
2017-11-29T01:45:00.531Z,10.80
2017-11-29T01:47:36.543Z,10.07
2017-11-29T01:50:28.904Z,8.32
2017-11-29T01:53:02.729Z,10.32
2017-11-29T01:55:39.172Z,9.20
2017-11-29T01:58:19.162Z,9.25
2017-11-29T02:00:54.257Z,9.63
2017-11-29T02:03:32.485Z,9.77
2017-11-29T02:06:08.815Z,8.95
2017-11-29T02:08:45.623Z,8.68
2017-11-29T02:11:20.354Z,8.48
2017-11-29T02:13:54.782Z,7.60
2017-11-29T02:16:31.359Z,7.72
2017-11-29T02:19:16.521Z,8.27
2017-11-29T02:21:53.752Z,7.22
2017-11-29T02:24:30.295Z,9.27
2017-11-29T02:27:08.179Z,9.13
2017-11-29T02:29:41.802Z,9.32
2017-11-29T02:35:15.523Z,8.10
2017-11-29T02:37:54.516Z,9.32
2017-11-29T02:42:38.195Z,8.68
2017-11-29T02:45:16.349Z,7.65
2017-11-29T02:47:58.703Z,8.13
2017-11-29T02:50:39.512Z,8.10
2017-11-29T02:53:22.925Z,8.32
2017-11-29T02:56:02.113Z,8.95
2017-11-29T02:58:49.017Z,7.95
2017-11-29T03:01:24.950Z,11.00
2017-11-29T03:04:00.692Z,8.73
2017-11-29T03:09:39.911Z,7.90
2017-11-29T03:12:22.123Z,8.05
2017-11-29T03:14:59.957Z,7.65
2017-11-29T03:17:35.869Z,11.18
2017-11-29T03:20:09.032Z,9.07
2017-11-29T03:22:43.905Z,8.63
2017-11-29T03:25:19.103Z,9.73
2017-11-29T03:28:09.041Z,7.57
2017-11-29T03:30:45.184Z,8.30
2017-11-29T03:33:23.463Z,7.62
2017-11-29T03:36:00.585Z,8.38
2017-11-29T03:38:36.803Z,8.57
2017-11-29T03:41:11.652Z,10.10
2017-11-29T03:43:51.515Z,8.50
2017-11-29T03:46:26.840Z,8.48
2017-11-29T03:49:03.330Z,8.10
2017-11-29T03:54:27.629Z,9.98
2017-11-29T03:57:04.438Z,8.40
2017-11-29T03:59:40.485Z,8.60
2017-11-29T04:02:20.103Z,8.60
2017-11-29T04:04:59.658Z,11.73
2017-11-29T04:07:36.402Z,17.00
2017-11-29T04:10:11.781Z,11.88
2017-11-29T04:12:45.542Z,11.05
2017-11-29T04:15:23.051Z,16.87
2017-11-29T04:17:58.453Z,19.95
2017-11-29T04:20:36.497Z,21.30
2017-11-29T04:23:13.529Z,14.23
2017-11-29T04:25:50.891Z,10.88
2017-11-29T04:28:24.723Z,10.60
2017-11-29T04:31:00.323Z,9.20
2017-11-29T04:33:41.109Z,12.60
2017-11-29T04:36:16.864Z,11.12
2017-11-29T04:38:51.836Z,10.40
2017-11-29T04:41:30.029Z,9.80
2017-11-29T04:44:07.725Z,13.50
2017-11-29T04:46:43.603Z,9.13
2017-11-29T04:49:17.933Z,9.45
2017-11-29T04:51:58.280Z,10.55
2017-11-29T04:54:32.113Z,13.13
2017-11-29T04:57:05.458Z,9.75
2017-11-29T04:59:47.099Z,10.68
2017-11-29T05:02:20.234Z,8.88
2017-11-29T05:05:03.852Z,9.75
2017-11-29T05:07:45.824Z,8.55
2017-11-29T05:10:20.148Z,9.23
2017-11-29T05:12:57.630Z,7.95
2017-11-29T05:15:34.924Z,7.53
2017-11-29T05:18:11.806Z,11.73
2017-11-29T05:20:45.395Z,8.60
2017-11-29T05:23:31.087Z,7.75
2017-11-29T05:26:09.198Z,9.75
2017-11-29T05:28:44.724Z,11.02
2017-11-29T05:31:23.566Z,9.88
2017-11-29T05:34:05.368Z,9.63
2017-11-29T05:36:42.819Z,9.52
2017-11-29T05:39:26.883Z,12.80
2017-11-29T05:42:06.169Z,10.77
2017-11-29T05:44:40.595Z,9.40
2017-11-29T05:47:17.212Z,8.93
2017-11-29T05:50:05.010Z,8.98
2017-11-29T05:53:11.288Z,9.82
2017-11-29T05:56:07.847Z,11.52
2017-11-29T05:58:59.208Z,7.78
2017-11-29T06:01:33.220Z,8.00
2017-11-29T06:04:09.452Z,9.98
2017-11-29T06:06:43.504Z,9.57
2017-11-29T06:09:20.750Z,7.25
2017-11-29T06:11:55.358Z,8.73
2017-11-29T06:14:32.094Z,12.00
2017-11-29T06:17:10.090Z,12.75
2017-11-29T06:19:43.850Z,11.80
2017-11-29T06:22:21.885Z,11.85
2017-11-29T06:24:58.479Z,11.10
2017-11-29T06:27:36.897Z,12.02
2017-11-29T06:30:14.702Z,12.35
2017-11-29T06:33:03.118Z,33.65
2017-11-29T06:35:39.182Z,22.23
2017-11-29T06:38:14.461Z,22.13
2017-11-29T06:41:01.663Z,10.38
2017-11-29T06:43:40.774Z,9.70
2017-11-29T06:46:20.310Z,9.80
2017-11-29T06:48:57.088Z,12.98
2017-11-29T06:51:36.874Z,10.02
2017-11-29T06:54:24.400Z,13.07
2017-11-29T06:57:09.138Z,9.80
2017-11-29T06:59:45.835Z,10.13
2017-11-29T07:05:06.443Z,8.55
2017-11-29T07:07:46.624Z,11.27
2017-11-29T07:10:27.005Z,9.65
2017-11-29T07:13:08.110Z,10.90
2017-11-29T07:15:57.132Z,9.05
2017-11-29T07:18:33.440Z,9.57
2017-11-29T07:21:08.574Z,11.52
2017-11-29T07:23:47.692Z,8.80
2017-11-29T07:26:34.829Z,10.88
2017-11-29T07:29:29.842Z,10.73
2017-11-29T07:32:15.398Z,9.40
2017-11-29T07:34:56.036Z,8.93
2017-11-29T07:37:34.454Z,11.73
2017-11-29T07:40:21.453Z,12.32
2017-11-29T07:42:58.193Z,12.45
2017-11-29T07:45:37.667Z,13.62
2017-11-29T07:48:17.543Z,12.48
2017-11-29T07:50:53.146Z,13.82
2017-11-29T07:53:30.879Z,12.90
2017-11-29T07:56:18.675Z,12.82
2017-11-29T07:59:01.075Z,13.18
2017-11-29T08:01:43.269Z,12.02
2017-11-29T08:04:33.132Z,11.75
2017-11-29T08:07:08.868Z,9.15
2017-11-29T08:10:01.490Z,13.52
2017-11-29T08:12:50.764Z,12.37
2017-11-29T08:15:36.977Z,12.25
2017-11-29T08:18:16.141Z,11.43
2017-11-29T08:20:56.564Z,11.27
2017-11-29T08:23:37.794Z,9.95
2017-11-29T08:26:19.819Z,10.45
2017-11-29T08:29:17.794Z,14.70
2017-11-29T08:32:02.116Z,15.60
2017-11-29T08:34:43.505Z,9.82
2017-11-29T08:37:34.963Z,12.37
2017-11-29T08:40:15.868Z,11.90
2017-11-29T08:45:44.712Z,9.65
2017-11-29T08:48:24.719Z,9.55
2017-11-29T08:51:03.620Z,9.15
2017-11-29T08:53:53.538Z,8.77
2017-11-29T08:56:49.333Z,9.80
2017-11-29T08:59:25.078Z,10.57
2017-11-29T09:02:00.872Z,9.90
2017-11-29T09:04:41.402Z,10.75
2017-11-29T09:07:19.184Z,9.15
2017-11-29T09:09:56.699Z,8.77
2017-11-29T09:12:36.293Z,9.13
2017-11-29T09:15:30.834Z,11.45
2017-11-29T09:18:12.100Z,10.07
2017-11-29T09:20:51.305Z,9.60
2017-11-29T09:23:27.771Z,8.93
2017-11-29T09:26:02.987Z,9.68
2017-11-29T09:28:44.447Z,10.25
2017-11-29T09:31:24.632Z,8.93
2017-11-29T09:34:02.405Z,9.93
2017-11-29T09:36:45.820Z,12.70
2017-11-29T09:39:20.992Z,10.40
2017-11-29T09:42:23.364Z,9.05
2017-11-29T09:45:17.194Z,10.25
2017-11-29T09:56:44.146Z,13.15
2017-11-29T09:59:21.948Z,10.57
2017-11-29T10:01:59.711Z,10.98
2017-11-29T10:04:39.300Z,10.52
2017-11-29T10:07:20.991Z,12.00
2017-11-29T10:10:01.616Z,9.85
2017-11-29T10:12:50.083Z,12.13
2017-11-29T10:15:31.870Z,10.23
2017-11-29T10:18:38.276Z,11.12
2017-11-29T10:21:18.764Z,10.75
2017-11-29T10:23:58.929Z,9.00
2017-11-29T10:26:35.242Z,10.52
2017-11-29T10:29:13.430Z,8.85
2017-11-29T10:31:56.426Z,8.90
2017-11-29T10:34:49.131Z,4.87
2017-11-29T10:37:29.629Z,7.27
2017-11-29T10:40:07.931Z,8.73
2017-11-29T10:42:55.902Z,8.13
2017-11-29T10:45:30.939Z,9.37
2017-11-29T10:48:05.291Z,7.90
2017-11-29T10:50:44.396Z,11.40
2017-11-29T10:53:23.489Z,8.03
2017-11-29T10:56:09.861Z,8.60
2017-11-29T10:58:48.588Z,7.37
2017-11-29T11:01:28.497Z,7.87
2017-11-29T11:04:05.475Z,8.13
2017-11-29T11:06:40.641Z,6.68
2017-11-29T11:09:28.844Z,7.03
2017-11-29T11:12:07.267Z,7.90
2017-11-29T11:14:46.124Z,6.72
2017-11-29T11:17:31.110Z,7.65
2017-11-29T11:20:08.711Z,8.70
2017-11-29T11:25:44.376Z,6.78
2017-11-29T11:28:20.226Z,7.85
2017-11-29T11:30:58.965Z,8.20
2017-11-29T11:33:38.396Z,6.65
2017-11-29T11:36:20.431Z,8.15
2017-11-29T11:39:01.195Z,7.30
2017-11-29T11:41:45.961Z,8.02
2017-11-29T11:44:22.976Z,8.70
2017-11-29T11:47:00.040Z,9.80
2017-11-29T11:49:37.147Z,5.65
2017-11-29T11:52:21.957Z,9.95
2017-11-29T11:55:10.292Z,7.78
2017-11-29T11:57:52.680Z,10.50
2017-11-29T12:00:43.099Z,8.77
2017-11-29T12:03:29.754Z,6.87
2017-11-29T12:06:06.275Z,7.97
2017-11-29T12:08:46.548Z,7.25
2017-11-29T12:11:22.594Z,9.70
2017-11-29T12:13:56.526Z,7.25
2017-11-29T12:16:30.762Z,6.68
2017-11-29T12:19:16.135Z,8.40
2017-11-29T12:21:59.672Z,6.62
2017-11-29T12:24:35.491Z,6.15
2017-11-29T12:27:14.328Z,9.02
2017-11-29T12:29:51.717Z,7.30
2017-11-29T12:32:34.978Z,9.40
2017-11-29T12:35:16.828Z,10.13
2017-11-29T12:37:54.618Z,9.80
2017-11-29T12:40:51.046Z,6.97
2017-11-29T12:43:27.238Z,7.10
2017-11-29T12:46:07.974Z,9.37
2017-11-29T12:50:54.787Z,9.30
2017-11-29T12:56:14.834Z,8.90
2017-11-29T12:59:13.757Z,11.50
2017-11-29T13:01:59.224Z,7.80
2017-11-29T13:07:32.101Z,7.00
2017-11-29T13:13:01.566Z,9.03
2017-11-29T13:15:52.892Z,7.87
2017-11-29T13:18:48.980Z,8.67
2017-11-29T13:21:28.644Z,11.03
2017-11-29T13:24:37.213Z,9.87
2017-11-29T13:27:30.318Z,11.43
2017-11-29T13:30:15.749Z,10.97
2017-11-29T13:33:21.634Z,13.60
2017-11-29T13:36:01.095Z,17.60
2017-11-29T13:39:00.579Z,21.07
2017-11-29T13:41:40.504Z,15.30
2017-11-29T13:44:29.218Z,17.17
2017-11-29T13:47:37.573Z,10.60
2017-11-29T13:50:26.198Z,12.20
2017-11-29T13:58:31.437Z,10.53
2017-11-29T14:04:21.406Z,9.70
2017-11-29T14:07:00.892Z,7.73
2017-11-29T14:21:10.751Z,9.10
2017-11-29T14:25:18.719Z,6.82
2017-11-29T14:28:10.310Z,8.80
2017-11-29T14:30:52.977Z,8.45
2017-11-29T14:33:41.873Z,7.45
2017-11-29T14:36:32.011Z,7.03
2017-11-29T14:42:13.172Z,7.28
2017-11-29T14:47:37.584Z,7.20
2017-11-29T14:50:25.842Z,6.67
2017-11-29T14:53:08.923Z,9.33
2017-11-29T14:55:54.528Z,6.55
2017-11-29T14:58:44.337Z,7.20
2017-11-29T15:01:30.819Z,8.63
2017-11-29T15:04:08.985Z,5.60
2017-11-29T15:06:56.416Z,8.35
2017-11-29T15:09:36.940Z,6.70
2017-11-29T15:12:53.499Z,5.22
2017-11-29T15:15:34.348Z,7.47
2017-11-29T15:18:09.847Z,9.03
2017-11-29T15:20:48.956Z,8.05
2017-11-29T15:23:33.424Z,9.27
2017-11-29T15:26:15.412Z,11.45
2017-11-29T15:29:00.905Z,7.90
2017-11-29T15:31:47.144Z,9.20
2017-11-29T15:34:27.467Z,10.15
2017-11-29T15:37:03.310Z,8.00
2017-11-29T15:39:47.389Z,10.23
2017-11-29T15:42:25.721Z,12.60
2017-11-29T15:45:12.531Z,11.37
2017-11-29T15:47:48.640Z,10.63
2017-11-29T15:50:27.375Z,8.27
2017-11-29T15:53:02.472Z,6.87
2017-11-29T15:55:39.283Z,7.43
2017-11-29T15:58:14.830Z,9.13
2017-11-29T16:00:58.863Z,9.97
2017-11-29T16:03:43.615Z,8.60
2017-11-29T16:06:26.222Z,7.97
2017-11-29T16:09:12.757Z,8.30
2017-11-29T16:11:47.471Z,8.32
2017-11-29T16:14:27.494Z,8.70
2017-11-29T16:17:04.018Z,8.15
2017-11-29T16:19:43.013Z,9.38
2017-11-29T16:22:19.356Z,8.88
2017-11-29T16:24:54.637Z,8.57
2017-11-29T16:27:30.142Z,7.53
2017-11-29T16:30:10.559Z,9.02
2017-11-29T16:32:50.048Z,8.57
2017-11-29T16:35:31.538Z,8.45
2017-11-29T16:38:17.467Z,8.93
2017-11-29T16:43:48.411Z,7.72
2017-11-29T16:46:29.251Z,9.43
2017-11-29T16:49:11.564Z,9.18
2017-11-29T16:51:49.875Z,13.50
2017-11-29T16:54:28.064Z,12.45
2017-11-29T16:57:05.057Z,11.98
2017-11-29T16:59:42.441Z,10.45
2017-11-29T17:02:30.242Z,9.65
2017-11-29T17:05:08.164Z,9.93
2017-11-29T17:07:45.748Z,8.98
2017-11-29T17:10:25.185Z,7.20
2017-11-29T17:13:00.713Z,9.35
2017-11-29T17:15:36.349Z,8.70
2017-11-29T17:18:11.824Z,7.78
2017-11-29T17:20:49.578Z,8.90
2017-11-29T17:23:29.157Z,11.27
2017-11-29T17:26:05.614Z,9.57
2017-11-29T17:28:45.425Z,9.05
2017-11-29T17:31:25.672Z,11.45
2017-11-29T17:34:01.523Z,11.90
2017-11-29T17:36:51.911Z,10.48
2017-11-29T17:39:27.379Z,20.67
2017-11-29T17:42:08.252Z,10.30
2017-11-29T17:44:59.007Z,8.65
2017-11-29T17:47:33.967Z,11.15
2017-11-29T17:50:12.883Z,12.23
2017-11-29T17:52:48.330Z,9.35
2017-11-29T17:55:22.099Z,9.73
2017-11-29T17:58:11.302Z,9.38
2017-11-29T18:04:10.997Z,8.55
2017-11-29T18:06:45.739Z,8.95
2017-11-29T18:09:26.318Z,6.90
2017-11-29T18:12:13.535Z,8.55
2017-11-29T18:14:49.541Z,8.77
2017-11-29T18:17:27.558Z,7.80
2017-11-29T18:20:01.057Z,8.43
2017-11-29T18:22:39.156Z,7.32
2017-11-29T18:25:16.329Z,6.78
2017-11-29T18:27:53.516Z,7.80
2017-11-29T18:30:32.067Z,8.40
2017-11-29T18:33:08.031Z,7.93
2017-11-29T18:36:01.320Z,9.63
2017-11-29T18:38:38.493Z,6.70
2017-11-29T18:41:15.205Z,15.40
2017-11-29T18:43:53.129Z,9.55
2017-11-29T18:46:32.856Z,9.68
2017-11-29T18:49:08.936Z,9.88
2017-11-29T18:51:48.302Z,11.90
2017-11-29T18:54:23.522Z,8.05
2017-11-29T18:56:57.587Z,7.78
2017-11-29T18:59:34.813Z,6.68
2017-11-29T19:02:13.120Z,11.93
2017-11-29T19:04:46.439Z,15.90
2017-11-29T19:07:21.621Z,14.43
2017-11-29T19:10:01.193Z,16.83
2017-11-29T19:12:38.022Z,17.12
2017-11-29T19:15:17.775Z,13.27
2017-11-29T19:17:58.964Z,11.55
2017-11-29T19:20:34.354Z,13.90
2017-11-29T19:23:19.294Z,13.30
2017-11-29T19:25:56.970Z,11.07
2017-11-29T19:28:40.010Z,13.27
2017-11-29T19:31:15.711Z,13.02
2017-11-29T19:33:51.922Z,9.25
2017-11-29T19:36:28.214Z,8.38
2017-11-29T19:39:02.396Z,11.77
2017-11-29T19:41:38.167Z,10.80
2017-11-29T19:44:12.908Z,11.38
2017-11-29T19:46:51.136Z,9.07
2017-11-29T19:49:23.772Z,9.63
2017-11-29T19:51:59.165Z,9.30
2017-11-29T19:54:32.616Z,9.82
2017-11-29T19:57:07.101Z,10.18
2017-11-29T19:59:43.874Z,16.85
2017-11-29T20:02:17.299Z,9.77
2017-11-29T20:04:53.666Z,9.07
2017-11-29T20:07:40.375Z,7.80
2017-11-29T20:10:17.689Z,8.27
2017-11-29T20:13:08.357Z,8.10
2017-11-29T20:15:44.525Z,8.70
2017-11-29T20:18:23.687Z,9.32
2017-11-29T20:21:01.192Z,9.73
2017-11-29T20:23:35.920Z,9.43
2017-11-29T20:26:15.360Z,10.38
2017-11-29T20:28:56.271Z,9.60
2017-11-29T20:31:32.320Z,9.90
2017-11-29T20:34:07.703Z,10.27
2017-11-29T20:36:46.372Z,9.20
2017-11-29T20:39:20.696Z,9.23
2017-11-29T20:41:54.551Z,12.05
2017-11-29T20:44:32.991Z,9.75
2017-11-29T20:47:08.166Z,11.68
2017-11-29T20:49:42.148Z,14.65
2017-11-29T20:52:23.999Z,10.60
2017-11-29T20:54:59.528Z,14.23
2017-11-29T20:57:34.497Z,12.60
2017-11-29T21:00:09.867Z,12.73
2017-11-29T21:02:41.860Z,14.27
2017-11-29T21:05:17.989Z,14.40
2017-11-29T21:07:52.490Z,13.57
2017-11-29T21:10:26.533Z,10.63
2017-11-29T21:13:02.221Z,12.37
2017-11-29T21:15:41.941Z,12.95
2017-11-29T21:18:21.864Z,12.37
2017-11-29T21:20:59.323Z,11.25
2017-11-29T21:23:35.494Z,10.52
2017-11-29T21:26:12.046Z,10.68
2017-11-29T21:29:25.526Z,11.77
2017-11-29T21:32:00.483Z,9.38
2017-11-29T21:34:36.325Z,10.82
2017-11-29T21:37:12.780Z,14.23
2017-11-29T21:39:49.165Z,13.13
2017-11-29T21:42:27.635Z,11.90
2017-11-29T21:45:07.072Z,12.13
2017-11-29T21:47:43.611Z,13.20
2017-11-29T21:53:14.566Z,12.20
2017-11-29T21:55:57.907Z,16.23
2017-11-29T21:58:35.477Z,10.85
2017-11-29T22:01:08.950Z,10.95
2017-11-29T22:03:45.667Z,11.90
2017-11-29T22:06:20.296Z,14.02
2017-11-29T22:09:11.300Z,12.23
2017-11-29T22:11:48.188Z,15.35
2017-11-29T22:14:22.640Z,17.85
2017-11-29T22:16:58.500Z,14.55
2017-11-29T22:19:34.047Z,16.05
2017-11-29T22:22:09.047Z,18.75
2017-11-29T22:24:45.621Z,19.05
2017-11-29T22:27:23.192Z,20.90
2017-11-29T22:29:58.822Z,17.85
2017-11-29T22:32:31.858Z,27.30
2017-11-29T22:35:07.000Z,21.00
2017-11-29T22:37:50.906Z,19.08
2017-11-29T22:40:26.011Z,20.02
2017-11-29T22:43:04.000Z,21.80
2017-11-29T22:45:42.302Z,22.05
2017-11-29T22:48:20.152Z,22.75
2017-11-29T22:50:55.595Z,23.48
2017-11-29T22:53:33.903Z,22.65
2017-11-29T22:56:06.655Z,21.90
2017-11-29T22:58:43.847Z,27.02
2017-11-29T23:01:19.413Z,30.20
2017-11-29T23:03:55.569Z,28.02
2017-11-29T23:06:29.513Z,22.15
2017-11-29T23:09:07.614Z,23.67
2017-11-29T23:11:40.909Z,23.73
2017-11-29T23:14:22.908Z,23.75
2017-11-29T23:16:59.212Z,22.48
2017-11-29T23:19:33.548Z,22.52
2017-11-29T23:22:14.966Z,22.58
2017-11-29T23:24:51.343Z,25.17
2017-11-29T23:27:30.056Z,25.48
2017-11-29T23:33:05.905Z,22.35
2017-11-29T23:35:41.905Z,26.83
2017-11-29T23:38:17.291Z,29.02
2017-11-29T23:40:51.991Z,26.73
2017-11-29T23:43:27.943Z,27.87
2017-11-29T23:46:04.236Z,22.98
2017-11-29T23:48:47.795Z,28.05
2017-11-29T23:51:27.144Z,30.17
2017-11-29T23:54:03.702Z,29.60
2017-11-29T23:56:36.395Z,31.25
2017-11-29T23:59:10.558Z,27.05
